sensor_id;sensor_type;location;lat;lon;timestamp;P1;durP1;ratioP1;P2;durP2;ratioP2
15055;SDS011;7626;42.674;23.284;2023-02-11T00:00:11;18.10;;;14.73;;
15055;SDS011;7626;42.674;23.284;2023-02-11T00:02:38;16.27;;;14.00;;
15055;SDS011;7626;42.674;23.284;2023-02-11T00:05:05;15.53;;;12.97;;
15055;SDS011;7626;42.674;23.284;2023-02-11T00:07:34;16.20;;;13.83;;
15055;SDS011;7626;42.674;23.284;2023-02-11T00:10:01;17.50;;;13.80;;
15055;SDS011;7626;42.674;23.284;2023-02-11T00:12:28;17.63;;;13.57;;
15055;SDS011;7626;42.674;23.284;2023-02-11T00:14:55;16.93;;;13.37;;
15055;SDS011;7626;42.674;23.284;2023-02-11T00:17:22;18.33;;;15.20;;
15055;SDS011;7626;42.674;23.284;2023-02-11T00:19:48;18.10;;;14.33;;
15055;SDS011;7626;42.674;23.284;2023-02-11T00:22:15;17.73;;;14.00;;
15055;SDS011;7626;42.674;23.284;2023-02-11T00:24:44;16.73;;;13.97;;
15055;SDS011;7626;42.674;23.284;2023-02-11T00:27:11;16.17;;;13.40;;
15055;SDS011;7626;42.674;23.284;2023-02-11T00:29:37;15.90;;;13.40;;
15055;SDS011;7626;42.674;23.284;2023-02-11T00:32:04;16.67;;;14.30;;
15055;SDS011;7626;42.674;23.284;2023-02-11T00:34:33;16.90;;;13.47;;
15055;SDS011;7626;42.674;23.284;2023-02-11T00:37:00;16.53;;;13.43;;
15055;SDS011;7626;42.674;23.284;2023-02-11T00:39:26;17.60;;;13.77;;
15055;SDS011;7626;42.674;23.284;2023-02-11T00:41:55;16.40;;;13.73;;
15055;SDS011;7626;42.674;23.284;2023-02-11T00:44:22;15.87;;;13.73;;
15055;SDS011;7626;42.674;23.284;2023-02-11T00:46:49;16.40;;;13.77;;
15055;SDS011;7626;42.674;23.284;2023-02-11T00:49:16;16.90;;;13.13;;
15055;SDS011;7626;42.674;23.284;2023-02-11T00:51:42;17.87;;;13.20;;
15055;SDS011;7626;42.674;23.284;2023-02-11T00:54:09;15.97;;;12.57;;
15055;SDS011;7626;42.674;23.284;2023-02-11T00:56:36;16.77;;;13.37;;
15055;SDS011;7626;42.674;23.284;2023-02-11T00:59:04;16.23;;;13.17;;
15055;SDS011;7626;42.674;23.284;2023-02-11T01:01:31;15.93;;;13.10;;
15055;SDS011;7626;42.674;23.284;2023-02-11T01:03:58;15.43;;;12.57;;
15055;SDS011;7626;42.674;23.284;2023-02-11T01:06:25;17.17;;;13.53;;
15055;SDS011;7626;42.674;23.284;2023-02-11T01:08:52;16.70;;;12.77;;
15055;SDS011;7626;42.674;23.284;2023-02-11T01:11:19;15.20;;;12.73;;
15055;SDS011;7626;42.674;23.284;2023-02-11T01:13:47;15.23;;;12.90;;
15055;SDS011;7626;42.674;23.284;2023-02-11T01:16:16;15.70;;;12.57;;
15055;SDS011;7626;42.674;23.284;2023-02-11T01:18:45;15.30;;;12.83;;
15055;SDS011;7626;42.674;23.284;2023-02-11T01:21:12;13.87;;;12.30;;
15055;SDS011;7626;42.674;23.284;2023-02-11T01:23:39;16.23;;;12.60;;
15055;SDS011;7626;42.674;23.284;2023-02-11T01:26:05;14.70;;;12.33;;
15055;SDS011;7626;42.674;23.284;2023-02-11T01:28:32;15.37;;;13.20;;
15055;SDS011;7626;42.674;23.284;2023-02-11T01:30:59;14.83;;;12.50;;
15055;SDS011;7626;42.674;23.284;2023-02-11T01:33:28;14.33;;;12.13;;
15055;SDS011;7626;42.674;23.284;2023-02-11T01:35:58;15.50;;;12.77;;
15055;SDS011;7626;42.674;23.284;2023-02-11T01:38:25;16.30;;;13.07;;
15055;SDS011;7626;42.674;23.284;2023-02-11T01:40:53;14.50;;;12.93;;
15055;SDS011;7626;42.674;23.284;2023-02-11T01:43:22;13.90;;;12.33;;
15055;SDS011;7626;42.674;23.284;2023-02-11T01:46:00;15.73;;;12.87;;
15055;SDS011;7626;42.674;23.284;2023-02-11T01:48:39;14.63;;;12.10;;
15055;SDS011;7626;42.674;23.284;2023-02-11T01:51:10;15.07;;;12.97;;
15055;SDS011;7626;42.674;23.284;2023-02-11T01:53:41;15.37;;;11.70;;
15055;SDS011;7626;42.674;23.284;2023-02-11T01:56:26;16.17;;;12.57;;
15055;SDS011;7626;42.674;23.284;2023-02-11T01:59:17;15.10;;;12.80;;
15055;SDS011;7626;42.674;23.284;2023-02-11T02:01:57;15.80;;;13.57;;
15055;SDS011;7626;42.674;23.284;2023-02-11T02:04:32;17.07;;;13.47;;
15055;SDS011;7626;42.674;23.284;2023-02-11T02:07:05;16.23;;;13.63;;
15055;SDS011;7626;42.674;23.284;2023-02-11T02:09:36;16.23;;;13.43;;
15055;SDS011;7626;42.674;23.284;2023-02-11T02:12:08;14.67;;;12.77;;
15055;SDS011;7626;42.674;23.284;2023-02-11T02:14:36;16.80;;;13.13;;
15055;SDS011;7626;42.674;23.284;2023-02-11T02:17:04;16.53;;;13.40;;
15055;SDS011;7626;42.674;23.284;2023-02-11T02:19:39;14.60;;;12.53;;
15055;SDS011;7626;42.674;23.284;2023-02-11T02:22:38;15.30;;;12.83;;
15055;SDS011;7626;42.674;23.284;2023-02-11T02:25:28;15.13;;;12.37;;
15055;SDS011;7626;42.674;23.284;2023-02-11T02:28:16;16.00;;;12.33;;
15055;SDS011;7626;42.674;23.284;2023-02-11T02:31:06;13.83;;;12.33;;
15055;SDS011;7626;42.674;23.284;2023-02-11T02:33:53;14.70;;;12.07;;
15055;SDS011;7626;42.674;23.284;2023-02-11T02:36:27;16.67;;;13.07;;
15055;SDS011;7626;42.674;23.284;2023-02-11T02:39:00;15.90;;;12.60;;
15055;SDS011;7626;42.674;23.284;2023-02-11T02:41:31;13.87;;;12.37;;
15055;SDS011;7626;42.674;23.284;2023-02-11T02:44:01;14.93;;;12.50;;
15055;SDS011;7626;42.674;23.284;2023-02-11T02:46:28;14.90;;;12.20;;
15055;SDS011;7626;42.674;23.284;2023-02-11T02:48:58;14.70;;;12.03;;
15055;SDS011;7626;42.674;23.284;2023-02-11T02:57:29;14.33;;;12.10;;
15055;SDS011;7626;42.674;23.284;2023-02-11T03:00:05;15.17;;;12.30;;
15055;SDS011;7626;42.674;23.284;2023-02-11T03:02:41;14.73;;;12.90;;
15055;SDS011;7626;42.674;23.284;2023-02-11T03:05:20;15.87;;;12.40;;
15055;SDS011;7626;42.674;23.284;2023-02-11T03:07:55;14.33;;;12.47;;
15055;SDS011;7626;42.674;23.284;2023-02-11T03:10:29;18.63;;;12.60;;
15055;SDS011;7626;42.674;23.284;2023-02-11T03:12:58;14.47;;;12.00;;
15055;SDS011;7626;42.674;23.284;2023-02-11T03:15:26;15.73;;;12.40;;
15055;SDS011;7626;42.674;23.284;2023-02-11T03:17:55;16.07;;;13.83;;
15055;SDS011;7626;42.674;23.284;2023-02-11T03:20:26;14.67;;;12.53;;
15055;SDS011;7626;42.674;23.284;2023-02-11T03:22:57;14.87;;;12.50;;
15055;SDS011;7626;42.674;23.284;2023-02-11T03:25:29;14.67;;;12.80;;
15055;SDS011;7626;42.674;23.284;2023-02-11T03:28:02;15.90;;;12.80;;
15055;SDS011;7626;42.674;23.284;2023-02-11T03:30:35;14.83;;;12.47;;
15055;SDS011;7626;42.674;23.284;2023-02-11T03:33:07;15.40;;;13.43;;
15055;SDS011;7626;42.674;23.284;2023-02-11T03:35:44;16.27;;;12.60;;
15055;SDS011;7626;42.674;23.284;2023-02-11T03:38:16;15.13;;;12.47;;
15055;SDS011;7626;42.674;23.284;2023-02-11T03:40:47;15.87;;;12.43;;
15055;SDS011;7626;42.674;23.284;2023-02-11T03:43:16;15.80;;;12.63;;
15055;SDS011;7626;42.674;23.284;2023-02-11T03:45:47;15.30;;;11.77;;
15055;SDS011;7626;42.674;23.284;2023-02-11T03:48:17;15.63;;;12.27;;
15055;SDS011;7626;42.674;23.284;2023-02-11T03:50:48;14.33;;;12.33;;
15055;SDS011;7626;42.674;23.284;2023-02-11T03:53:17;14.40;;;12.60;;
15055;SDS011;7626;42.674;23.284;2023-02-11T03:55:45;16.73;;;12.93;;
15055;SDS011;7626;42.674;23.284;2023-02-11T03:58:14;15.17;;;12.77;;
15055;SDS011;7626;42.674;23.284;2023-02-11T04:00:41;17.77;;;13.23;;
15055;SDS011;7626;42.674;23.284;2023-02-11T04:03:11;16.73;;;13.27;;
15055;SDS011;7626;42.674;23.284;2023-02-11T04:05:38;17.23;;;13.77;;
15055;SDS011;7626;42.674;23.284;2023-02-11T04:08:07;15.50;;;13.10;;
15055;SDS011;7626;42.674;23.284;2023-02-11T04:10:34;16.77;;;14.63;;
15055;SDS011;7626;42.674;23.284;2023-02-11T04:13:01;16.10;;;13.40;;
15055;SDS011;7626;42.674;23.284;2023-02-11T04:15:27;16.37;;;13.37;;
15055;SDS011;7626;42.674;23.284;2023-02-11T04:17:54;16.17;;;13.33;;
15055;SDS011;7626;42.674;23.284;2023-02-11T04:20:21;17.90;;;14.23;;
15055;SDS011;7626;42.674;23.284;2023-02-11T04:22:48;17.20;;;13.17;;
15055;SDS011;7626;42.674;23.284;2023-02-11T04:25:16;16.10;;;13.63;;
15055;SDS011;7626;42.674;23.284;2023-02-11T04:27:43;17.47;;;13.67;;
15055;SDS011;7626;42.674;23.284;2023-02-11T04:30:10;15.87;;;13.90;;
15055;SDS011;7626;42.674;23.284;2023-02-11T04:32:37;17.20;;;14.17;;
15055;SDS011;7626;42.674;23.284;2023-02-11T04:35:04;16.07;;;13.23;;
15055;SDS011;7626;42.674;23.284;2023-02-11T04:37:31;17.27;;;13.97;;
15055;SDS011;7626;42.674;23.284;2023-02-11T04:39:59;17.20;;;14.00;;
15055;SDS011;7626;42.674;23.284;2023-02-11T04:42:27;16.37;;;13.80;;
15055;SDS011;7626;42.674;23.284;2023-02-11T04:44:54;15.93;;;13.93;;
15055;SDS011;7626;42.674;23.284;2023-02-11T04:47:21;17.47;;;13.87;;
15055;SDS011;7626;42.674;23.284;2023-02-11T04:49:47;18.20;;;14.43;;
15055;SDS011;7626;42.674;23.284;2023-02-11T04:52:14;17.47;;;13.77;;
15055;SDS011;7626;42.674;23.284;2023-02-11T04:54:41;18.33;;;14.40;;
15055;SDS011;7626;42.674;23.284;2023-02-11T04:57:08;18.17;;;14.43;;
15055;SDS011;7626;42.674;23.284;2023-02-11T04:59:36;15.83;;;14.03;;
15055;SDS011;7626;42.674;23.284;2023-02-11T05:02:02;17.60;;;14.53;;
15055;SDS011;7626;42.674;23.284;2023-02-11T05:04:29;16.53;;;14.43;;
15055;SDS011;7626;42.674;23.284;2023-02-11T05:06:56;19.60;;;15.57;;
15055;SDS011;7626;42.674;23.284;2023-02-11T05:09:22;17.93;;;14.87;;
15055;SDS011;7626;42.674;23.284;2023-02-11T05:11:49;17.77;;;15.17;;
15055;SDS011;7626;42.674;23.284;2023-02-11T05:14:16;17.67;;;14.97;;
15055;SDS011;7626;42.674;23.284;2023-02-11T05:16:44;18.13;;;14.60;;
15055;SDS011;7626;42.674;23.284;2023-02-11T05:19:11;19.27;;;14.77;;
15055;SDS011;7626;42.674;23.284;2023-02-11T05:21:37;18.10;;;15.47;;
15055;SDS011;7626;42.674;23.284;2023-02-11T05:24:05;18.87;;;15.37;;
15055;SDS011;7626;42.674;23.284;2023-02-11T05:26:32;19.37;;;15.07;;
15055;SDS011;7626;42.674;23.284;2023-02-11T05:28:59;18.73;;;14.60;;
15055;SDS011;7626;42.674;23.284;2023-02-11T05:31:26;20.17;;;15.20;;
15055;SDS011;7626;42.674;23.284;2023-02-11T05:33:54;22.00;;;16.33;;
15055;SDS011;7626;42.674;23.284;2023-02-11T05:36:20;20.60;;;15.70;;
15055;SDS011;7626;42.674;23.284;2023-02-11T05:38:47;20.47;;;16.50;;
15055;SDS011;7626;42.674;23.284;2023-02-11T05:41:15;20.20;;;15.20;;
15055;SDS011;7626;42.674;23.284;2023-02-11T05:43:41;18.93;;;15.60;;
15055;SDS011;7626;42.674;23.284;2023-02-11T05:46:08;20.83;;;15.47;;
15055;SDS011;7626;42.674;23.284;2023-02-11T05:48:35;19.97;;;16.10;;
15055;SDS011;7626;42.674;23.284;2023-02-11T05:51:03;21.37;;;16.40;;
15055;SDS011;7626;42.674;23.284;2023-02-11T05:53:30;20.03;;;16.00;;
15055;SDS011;7626;42.674;23.284;2023-02-11T05:55:57;19.77;;;15.90;;
15055;SDS011;7626;42.674;23.284;2023-02-11T05:58:23;20.50;;;16.73;;
15055;SDS011;7626;42.674;23.284;2023-02-11T06:00:50;23.10;;;17.23;;
15055;SDS011;7626;42.674;23.284;2023-02-11T06:03:17;21.53;;;16.67;;
15055;SDS011;7626;42.674;23.284;2023-02-11T06:05:44;21.80;;;16.77;;
15055;SDS011;7626;42.674;23.284;2023-02-11T06:08:12;21.00;;;16.30;;
15055;SDS011;7626;42.674;23.284;2023-02-11T06:10:39;20.47;;;16.07;;
15055;SDS011;7626;42.674;23.284;2023-02-11T06:13:07;19.57;;;17.07;;
15055;SDS011;7626;42.674;23.284;2023-02-11T06:15:34;19.60;;;16.80;;
15055;SDS011;7626;42.674;23.284;2023-02-11T06:18:00;23.70;;;18.07;;
15055;SDS011;7626;42.674;23.284;2023-02-11T06:20:27;24.10;;;18.73;;
15055;SDS011;7626;42.674;23.284;2023-02-11T06:22:54;24.57;;;19.83;;
15055;SDS011;7626;42.674;23.284;2023-02-11T06:25:22;24.00;;;19.93;;
15055;SDS011;7626;42.674;23.284;2023-02-11T06:27:49;31.33;;;22.00;;
15055;SDS011;7626;42.674;23.284;2023-02-11T06:30:15;34.37;;;22.83;;
15055;SDS011;7626;42.674;23.284;2023-02-11T06:32:42;30.10;;;23.33;;
15055;SDS011;7626;42.674;23.284;2023-02-11T06:35:09;31.27;;;24.10;;
15055;SDS011;7626;42.674;23.284;2023-02-11T06:37:36;31.97;;;24.63;;
15055;SDS011;7626;42.674;23.284;2023-02-11T06:40:03;30.70;;;24.47;;
15055;SDS011;7626;42.674;23.284;2023-02-11T06:42:31;32.37;;;22.60;;
15055;SDS011;7626;42.674;23.284;2023-02-11T06:44:58;29.20;;;23.27;;
15055;SDS011;7626;42.674;23.284;2023-02-11T06:47:25;32.33;;;24.77;;
15055;SDS011;7626;42.674;23.284;2023-02-11T06:49:52;32.23;;;24.97;;
15055;SDS011;7626;42.674;23.284;2023-02-11T06:52:18;32.00;;;24.63;;
15055;SDS011;7626;42.674;23.284;2023-02-11T06:54:45;33.17;;;25.53;;
15055;SDS011;7626;42.674;23.284;2023-02-11T06:57:12;32.50;;;25.63;;
15055;SDS011;7626;42.674;23.284;2023-02-11T06:59:40;33.60;;;27.13;;
15055;SDS011;7626;42.674;23.284;2023-02-11T07:02:07;33.97;;;26.20;;
15055;SDS011;7626;42.674;23.284;2023-02-11T07:04:34;33.90;;;25.80;;
15055;SDS011;7626;42.674;23.284;2023-02-11T07:07:01;35.27;;;27.10;;
15055;SDS011;7626;42.674;23.284;2023-02-11T07:09:28;33.40;;;26.37;;
15055;SDS011;7626;42.674;23.284;2023-02-11T07:11:54;33.33;;;25.87;;
15055;SDS011;7626;42.674;23.284;2023-02-11T07:14:21;37.13;;;26.33;;
15055;SDS011;7626;42.674;23.284;2023-02-11T07:16:49;36.53;;;26.23;;
15055;SDS011;7626;42.674;23.284;2023-02-11T07:19:16;35.00;;;25.50;;
15055;SDS011;7626;42.674;23.284;2023-02-11T07:21:43;34.47;;;26.23;;
15055;SDS011;7626;42.674;23.284;2023-02-11T07:24:10;33.10;;;25.80;;
15055;SDS011;7626;42.674;23.284;2023-02-11T07:26:38;30.50;;;24.63;;
15055;SDS011;7626;42.674;23.284;2023-02-11T07:29:05;30.23;;;23.43;;
15055;SDS011;7626;42.674;23.284;2023-02-11T07:31:32;29.83;;;22.13;;
15055;SDS011;7626;42.674;23.284;2023-02-11T07:34:00;28.50;;;21.93;;
15055;SDS011;7626;42.674;23.284;2023-02-11T07:36:27;26.30;;;21.87;;
15055;SDS011;7626;42.674;23.284;2023-02-11T07:38:56;26.07;;;19.70;;
15055;SDS011;7626;42.674;23.284;2023-02-11T07:41:24;25.33;;;19.70;;
15055;SDS011;7626;42.674;23.284;2023-02-11T07:43:51;27.27;;;19.10;;
15055;SDS011;7626;42.674;23.284;2023-02-11T07:46:19;26.43;;;18.70;;
15055;SDS011;7626;42.674;23.284;2023-02-11T07:48:47;23.50;;;18.10;;
15055;SDS011;7626;42.674;23.284;2023-02-11T07:51:16;39.07;;;17.33;;
15055;SDS011;7626;42.674;23.284;2023-02-11T07:53:43;31.70;;;16.57;;
15055;SDS011;7626;42.674;23.284;2023-02-11T07:56:11;29.03;;;16.33;;
15055;SDS011;7626;42.674;23.284;2023-02-11T07:58:39;31.20;;;17.00;;
15055;SDS011;7626;42.674;23.284;2023-02-11T08:01:07;25.70;;;17.37;;
15055;SDS011;7626;42.674;23.284;2023-02-11T08:03:36;27.40;;;16.63;;
15055;SDS011;7626;42.674;23.284;2023-02-11T08:06:04;25.03;;;16.20;;
15055;SDS011;7626;42.674;23.284;2023-02-11T08:08:33;26.63;;;16.60;;
15055;SDS011;7626;42.674;23.284;2023-02-11T08:11:04;25.03;;;16.50;;
15055;SDS011;7626;42.674;23.284;2023-02-11T08:13:31;24.80;;;15.13;;
15055;SDS011;7626;42.674;23.284;2023-02-11T08:15:58;22.10;;;16.07;;
15055;SDS011;7626;42.674;23.284;2023-02-11T08:18:25;21.97;;;16.97;;
15055;SDS011;7626;42.674;23.284;2023-02-11T08:20:52;23.33;;;16.37;;
15055;SDS011;7626;42.674;23.284;2023-02-11T08:23:19;23.67;;;16.00;;
15055;SDS011;7626;42.674;23.284;2023-02-11T08:25:47;19.63;;;15.47;;
15055;SDS011;7626;42.674;23.284;2023-02-11T08:28:13;20.90;;;15.70;;
15055;SDS011;7626;42.674;23.284;2023-02-11T08:30:40;20.10;;;15.33;;
15055;SDS011;7626;42.674;23.284;2023-02-11T08:33:07;18.20;;;16.23;;
15055;SDS011;7626;42.674;23.284;2023-02-11T08:35:34;20.37;;;16.23;;
15055;SDS011;7626;42.674;23.284;2023-02-11T08:38:01;19.83;;;16.60;;
15055;SDS011;7626;42.674;23.284;2023-02-11T08:40:27;20.17;;;16.90;;
15055;SDS011;7626;42.674;23.284;2023-02-11T08:42:56;20.13;;;16.70;;
15055;SDS011;7626;42.674;23.284;2023-02-11T08:45:22;19.30;;;16.23;;
15055;SDS011;7626;42.674;23.284;2023-02-11T08:47:49;21.73;;;17.10;;
15055;SDS011;7626;42.674;23.284;2023-02-11T08:50:16;22.57;;;17.87;;
15055;SDS011;7626;42.674;23.284;2023-02-11T08:52:42;19.33;;;17.13;;
15055;SDS011;7626;42.674;23.284;2023-02-11T08:55:09;22.47;;;17.50;;
15055;SDS011;7626;42.674;23.284;2023-02-11T08:57:36;18.83;;;16.83;;
15055;SDS011;7626;42.674;23.284;2023-02-11T09:00:05;21.93;;;17.87;;
15055;SDS011;7626;42.674;23.284;2023-02-11T09:02:35;20.07;;;17.50;;
15055;SDS011;7626;42.674;23.284;2023-02-11T09:05:01;18.83;;;16.83;;
15055;SDS011;7626;42.674;23.284;2023-02-11T09:07:28;19.80;;;17.00;;
15055;SDS011;7626;42.674;23.284;2023-02-11T09:09:55;20.63;;;17.70;;
15055;SDS011;7626;42.674;23.284;2023-02-11T09:12:21;20.27;;;16.90;;
15055;SDS011;7626;42.674;23.284;2023-02-11T09:14:48;25.27;;;18.17;;
15055;SDS011;7626;42.674;23.284;2023-02-11T09:17:16;18.67;;;16.63;;
15055;SDS011;7626;42.674;23.284;2023-02-11T09:19:43;18.83;;;16.83;;
15055;SDS011;7626;42.674;23.284;2023-02-11T09:22:10;19.60;;;17.57;;
15055;SDS011;7626;42.674;23.284;2023-02-11T09:24:36;18.33;;;15.80;;
15055;SDS011;7626;42.674;23.284;2023-02-11T09:27:03;19.43;;;15.93;;
15055;SDS011;7626;42.674;23.284;2023-02-11T09:29:31;20.67;;;16.77;;
15055;SDS011;7626;42.674;23.284;2023-02-11T09:31:57;18.30;;;16.17;;
15055;SDS011;7626;42.674;23.284;2023-02-11T09:34:25;18.37;;;16.47;;
15055;SDS011;7626;42.674;23.284;2023-02-11T09:36:52;19.40;;;16.57;;
15055;SDS011;7626;42.674;23.284;2023-02-11T09:39:19;17.13;;;15.33;;
15055;SDS011;7626;42.674;23.284;2023-02-11T09:41:51;19.23;;;15.93;;
15055;SDS011;7626;42.674;23.284;2023-02-11T09:44:35;17.47;;;15.47;;
15055;SDS011;7626;42.674;23.284;2023-02-11T09:47:03;18.57;;;15.60;;
15055;SDS011;7626;42.674;23.284;2023-02-11T09:49:34;17.07;;;14.37;;
15055;SDS011;7626;42.674;23.284;2023-02-11T09:52:07;18.57;;;16.00;;
15055;SDS011;7626;42.674;23.284;2023-02-11T09:54:45;17.03;;;15.03;;
15055;SDS011;7626;42.674;23.284;2023-02-11T09:57:19;17.30;;;14.53;;
15055;SDS011;7626;42.674;23.284;2023-02-11T09:59:46;18.30;;;15.33;;
15055;SDS011;7626;42.674;23.284;2023-02-11T10:02:16;16.07;;;14.37;;
15055;SDS011;7626;42.674;23.284;2023-02-11T10:05:05;16.10;;;14.40;;
15055;SDS011;7626;42.674;23.284;2023-02-11T10:07:53;16.27;;;14.50;;
15055;SDS011;7626;42.674;23.284;2023-02-11T10:10:28;19.20;;;15.20;;
15055;SDS011;7626;42.674;23.284;2023-02-11T10:13:10;15.87;;;14.20;;
15055;SDS011;7626;42.674;23.284;2023-02-11T10:15:50;16.93;;;14.60;;
15055;SDS011;7626;42.674;23.284;2023-02-11T10:18:33;16.37;;;14.17;;
15055;SDS011;7626;42.674;23.284;2023-02-11T10:21:14;15.40;;;13.40;;
15055;SDS011;7626;42.674;23.284;2023-02-11T10:23:49;15.50;;;13.47;;
15055;SDS011;7626;42.674;23.284;2023-02-11T10:26:19;14.67;;;13.03;;
15055;SDS011;7626;42.674;23.284;2023-02-11T10:28:48;14.97;;;13.50;;
15055;SDS011;7626;42.674;23.284;2023-02-11T10:31:19;14.87;;;12.40;;
15055;SDS011;7626;42.674;23.284;2023-02-11T10:33:50;15.10;;;13.50;;
15055;SDS011;7626;42.674;23.284;2023-02-11T10:36:26;14.17;;;12.67;;
15055;SDS011;7626;42.674;23.284;2023-02-11T10:38:55;14.97;;;13.30;;
15055;SDS011;7626;42.674;23.284;2023-02-11T10:41:25;17.17;;;13.00;;
15055;SDS011;7626;42.674;23.284;2023-02-11T10:43:57;13.97;;;12.57;;
15055;SDS011;7626;42.674;23.284;2023-02-11T10:46:25;14.07;;;12.37;;
15055;SDS011;7626;42.674;23.284;2023-02-11T10:48:57;13.93;;;11.90;;
15055;SDS011;7626;42.674;23.284;2023-02-11T10:51:26;15.07;;;12.77;;
15055;SDS011;7626;42.674;23.284;2023-02-11T11:20:31;15.30;;;12.77;;
15055;SDS011;7626;42.674;23.284;2023-02-11T11:23:08;15.37;;;13.10;;
15055;SDS011;7626;42.674;23.284;2023-02-11T11:25:41;15.20;;;12.87;;
15055;SDS011;7626;42.674;23.284;2023-02-11T11:28:17;15.43;;;13.20;;
15055;SDS011;7626;42.674;23.284;2023-02-11T11:30:47;14.47;;;12.93;;
15055;SDS011;7626;42.674;23.284;2023-02-11T11:33:18;14.57;;;12.70;;
15055;SDS011;7626;42.674;23.284;2023-02-11T11:35:56;15.67;;;12.37;;
15055;SDS011;7626;42.674;23.284;2023-02-11T11:38:28;14.90;;;13.00;;
15055;SDS011;7626;42.674;23.284;2023-02-11T11:41:13;16.90;;;11.97;;
15055;SDS011;7626;42.674;23.284;2023-02-11T11:43:55;15.10;;;12.13;;
15055;SDS011;7626;42.674;23.284;2023-02-11T11:46:25;14.27;;;11.60;;
15055;SDS011;7626;42.674;23.284;2023-02-11T11:48:55;12.67;;;11.47;;
15055;SDS011;7626;42.674;23.284;2023-02-11T11:51:30;14.93;;;11.63;;
15055;SDS011;7626;42.674;23.284;2023-02-11T11:53:59;14.70;;;11.23;;
15055;SDS011;7626;42.674;23.284;2023-02-11T11:56:31;13.57;;;11.77;;
15055;SDS011;7626;42.674;23.284;2023-02-11T11:59:01;13.73;;;11.60;;
15055;SDS011;7626;42.674;23.284;2023-02-11T12:01:33;12.70;;;11.30;;
15055;SDS011;7626;42.674;23.284;2023-02-11T12:07:24;14.60;;;12.07;;
15055;SDS011;7626;42.674;23.284;2023-02-11T12:12:52;13.10;;;11.70;;
15055;SDS011;7626;42.674;23.284;2023-02-11T12:15:30;13.23;;;11.13;;
15055;SDS011;7626;42.674;23.284;2023-02-11T12:18:08;11.93;;;10.43;;
15055;SDS011;7626;42.674;23.284;2023-02-11T12:20:48;13.50;;;11.00;;
15055;SDS011;7626;42.674;23.284;2023-02-11T12:23:32;11.80;;;10.40;;
15055;SDS011;7626;42.674;23.284;2023-02-11T12:26:12;13.57;;;10.77;;
15055;SDS011;7626;42.674;23.284;2023-02-11T12:28:43;11.03;;;9.93;;
15055;SDS011;7626;42.674;23.284;2023-02-11T12:31:30;11.80;;;9.97;;
15055;SDS011;7626;42.674;23.284;2023-02-11T12:34:27;35.83;;;12.23;;
15055;SDS011;7626;42.674;23.284;2023-02-11T12:37:13;23.17;;;11.13;;
15055;SDS011;7626;42.674;23.284;2023-02-11T12:39:50;17.67;;;11.47;;
15055;SDS011;7626;42.674;23.284;2023-02-11T12:42:29;21.30;;;11.07;;
15055;SDS011;7626;42.674;23.284;2023-02-11T12:45:31;17.70;;;11.23;;
15055;SDS011;7626;42.674;23.284;2023-02-11T12:48:11;16.70;;;10.97;;
15055;SDS011;7626;42.674;23.284;2023-02-11T12:50:53;20.00;;;11.07;;
15055;SDS011;7626;42.674;23.284;2023-02-11T12:56:22;16.27;;;11.20;;
15055;SDS011;7626;42.674;23.284;2023-02-11T12:58:54;17.23;;;11.00;;
15055;SDS011;7626;42.674;23.284;2023-02-11T13:01:23;15.93;;;10.83;;
15055;SDS011;7626;42.674;23.284;2023-02-11T13:03:53;15.27;;;10.60;;
15055;SDS011;7626;42.674;23.284;2023-02-11T13:06:27;12.73;;;10.53;;
15055;SDS011;7626;42.674;23.284;2023-02-11T13:08:59;11.30;;;10.10;;
15055;SDS011;7626;42.674;23.284;2023-02-11T13:11:32;13.33;;;10.23;;
15055;SDS011;7626;42.674;23.284;2023-02-11T13:14:05;15.27;;;10.93;;
15055;SDS011;7626;42.674;23.284;2023-02-11T13:16:39;15.10;;;10.80;;
15055;SDS011;7626;42.674;23.284;2023-02-11T13:19:13;13.90;;;10.40;;
15055;SDS011;7626;42.674;23.284;2023-02-11T13:21:48;13.03;;;10.80;;
15055;SDS011;7626;42.674;23.284;2023-02-11T13:24:30;14.40;;;10.73;;
15055;SDS011;7626;42.674;23.284;2023-02-11T13:27:09;14.87;;;11.90;;
15055;SDS011;7626;42.674;23.284;2023-02-11T13:29:58;15.43;;;11.57;;
15055;SDS011;7626;42.674;23.284;2023-02-11T13:36:10;14.03;;;11.67;;
15055;SDS011;7626;42.674;23.284;2023-02-11T13:38:39;12.43;;;10.93;;
15055;SDS011;7626;42.674;23.284;2023-02-11T13:41:18;13.43;;;10.67;;
15055;SDS011;7626;42.674;23.284;2023-02-11T13:43:57;13.47;;;11.13;;
15055;SDS011;7626;42.674;23.284;2023-02-11T13:46:26;12.50;;;10.67;;
15055;SDS011;7626;42.674;23.284;2023-02-11T13:49:16;12.63;;;10.00;;
15055;SDS011;7626;42.674;23.284;2023-02-11T13:51:45;11.60;;;9.83;;
15055;SDS011;7626;42.674;23.284;2023-02-11T13:54:18;12.90;;;10.33;;
15055;SDS011;7626;42.674;23.284;2023-02-11T13:59:50;11.17;;;9.50;;
15055;SDS011;7626;42.674;23.284;2023-02-11T14:02:22;13.50;;;9.97;;
15055;SDS011;7626;42.674;23.284;2023-02-11T14:05:18;12.50;;;10.23;;
15055;SDS011;7626;42.674;23.284;2023-02-11T14:08:12;12.70;;;10.20;;
15055;SDS011;7626;42.674;23.284;2023-02-11T14:11:02;11.40;;;9.60;;
15055;SDS011;7626;42.674;23.284;2023-02-11T14:16:36;12.87;;;9.37;;
15055;SDS011;7626;42.674;23.284;2023-02-11T14:19:47;11.93;;;9.53;;
15055;SDS011;7626;42.674;23.284;2023-02-11T14:22:15;11.37;;;9.90;;
15055;SDS011;7626;42.674;23.284;2023-02-11T14:24:47;12.67;;;10.23;;
15055;SDS011;7626;42.674;23.284;2023-02-11T14:27:27;11.40;;;10.07;;
15055;SDS011;7626;42.674;23.284;2023-02-11T14:30:01;12.50;;;10.07;;
15055;SDS011;7626;42.674;23.284;2023-02-11T14:32:50;11.87;;;10.33;;
15055;SDS011;7626;42.674;23.284;2023-02-11T14:35:39;11.43;;;10.23;;
15055;SDS011;7626;42.674;23.284;2023-02-11T14:38:13;12.40;;;11.10;;
15055;SDS011;7626;42.674;23.284;2023-02-11T14:40:49;12.83;;;10.70;;
15055;SDS011;7626;42.674;23.284;2023-02-11T14:43:22;13.10;;;10.40;;
15055;SDS011;7626;42.674;23.284;2023-02-11T14:45:52;14.20;;;10.97;;
15055;SDS011;7626;42.674;23.284;2023-02-11T14:48:24;13.07;;;10.63;;
15055;SDS011;7626;42.674;23.284;2023-02-11T14:50:57;13.40;;;10.90;;
15055;SDS011;7626;42.674;23.284;2023-02-11T14:53:29;14.23;;;10.47;;
15055;SDS011;7626;42.674;23.284;2023-02-11T14:55:58;13.03;;;11.00;;
15055;SDS011;7626;42.674;23.284;2023-02-11T14:58:26;11.77;;;10.53;;
15055;SDS011;7626;42.674;23.284;2023-02-11T15:00:55;12.57;;;9.87;;
15055;SDS011;7626;42.674;23.284;2023-02-11T15:03:34;12.63;;;10.57;;
15055;SDS011;7626;42.674;23.284;2023-02-11T15:06:04;12.10;;;10.80;;
15055;SDS011;7626;42.674;23.284;2023-02-11T15:08:33;12.50;;;10.43;;
15055;SDS011;7626;42.674;23.284;2023-02-11T15:11:06;12.33;;;10.17;;
15055;SDS011;7626;42.674;23.284;2023-02-11T15:13:37;13.03;;;10.10;;
15055;SDS011;7626;42.674;23.284;2023-02-11T15:16:12;11.73;;;10.07;;
15055;SDS011;7626;42.674;23.284;2023-02-11T15:18:44;13.80;;;11.20;;
15055;SDS011;7626;42.674;23.284;2023-02-11T15:21:18;13.00;;;10.23;;
15055;SDS011;7626;42.674;23.284;2023-02-11T15:23:53;12.97;;;10.47;;
15055;SDS011;7626;42.674;23.284;2023-02-11T15:26:21;14.03;;;10.00;;
15055;SDS011;7626;42.674;23.284;2023-02-11T15:28:47;14.17;;;10.37;;
15055;SDS011;7626;42.674;23.284;2023-02-11T15:31:16;21.80;;;10.97;;
15055;SDS011;7626;42.674;23.284;2023-02-11T15:33:45;18.83;;;9.20;;